Time;durP1;ratioP1;P1;durP2;ratioP2;P2;SDS_P1;SDS_P2;PMS_P1;PMS_P2;Temp;Humidity;BMP_temperature;BMP_pressure;BME280_temperature;BME280_humidity;BME280_pressure;Samples;Min_cycle;Max_cycle;Signal;HPM_P1;HPM_P2
2022/01/19 00:00:18;;;;;;;21.52;13.02;;;4.50;99.90;;;;;;4971318;28;20049;-78
2022/01/19 00:02:44;;;;;;;17.88;12.13;;;4.50;99.90;;;;;;4990126;28;20037;-77
2022/01/19 00:05:11;;;;;;;19.83;11.48;;;4.50;99.90;;;;;;4983182;28;20038;-78
2022/01/19 00:07:37;;;;;;;15.50;10.57;;;4.50;99.90;;;;;;5005006;28;20073;-88
2022/01/19 00:10:09;;;;;;;16.70;11.32;;;4.50;99.90;;;;;;5007266;28;20050;-89
2022/01/19 00:12:35;;;;;;;19.08;11.90;;;4.50;99.90;;;;;;4987174;28;20525;-78
2022/01/19 00:15:01;;;;;;;21.92;12.68;;;4.50;99.90;;;;;;4972357;28;20054;-78
2022/01/19 00:17:27;;;;;;;28.27;14.75;;;4.50;99.90;;;;;;4971798;28;20037;-78
2022/01/19 00:19:52;;;;;;;25.45;15.13;;;4.50;99.90;;;;;;4984872;28;20030;-87
2022/01/19 00:22:18;;;;;;;25.73;14.13;;;4.50;99.90;;;;;;4990973;28;20117;-88
2022/01/19 00:24:44;;;;;;;23.63;17.42;;;4.50;99.90;;;;;;4990601;28;20371;-89
2022/01/19 00:27:11;;;;;;;32.38;19.40;;;4.40;99.90;;;;;;5005780;28;20359;-89
2022/01/19 00:29:37;;;;;;;31.38;17.75;;;4.50;99.90;;;;;;5022924;28;20038;-88
2022/01/19 00:32:03;;;;;;;27.92;18.20;;;4.40;99.90;;;;;;5009151;28;20524;-89
2022/01/19 00:34:29;;;;;;;32.60;18.58;;;4.50;99.90;;;;;;5004623;28;20240;-88
2022/01/19 00:36:56;;;;;;;36.47;19.70;;;4.50;99.90;;;;;;4986397;28;20248;-88
2022/01/19 00:39:24;;;;;;;26.10;17.73;;;4.50;99.90;;;;;;4978226;28;20038;-88
2022/01/19 00:41:50;;;;;;;37.75;18.42;;;4.50;99.90;;;;;;5006687;28;20491;-78
2022/01/19 00:44:16;;;;;;;30.75;17.95;;;4.50;99.90;;;;;;4994275;28;20213;-78
2022/01/19 00:46:42;;;;;;;27.52;18.10;;;4.50;99.90;;;;;;4992952;28;20037;-78
2022/01/19 00:49:08;;;;;;;27.52;14.95;;;4.40;99.90;;;;;;4990240;28;20045;-78
2022/01/19 00:51:33;;;;;;;29.90;17.67;;;4.40;99.90;;;;;;4989392;28;20042;-78
2022/01/19 00:53:59;;;;;;;27.35;17.40;;;4.40;99.90;;;;;;4976655;28;20042;-78
2022/01/19 00:56:25;;;;;;;27.40;19.05;;;4.40;99.90;;;;;;4992663;28;20136;-88
2022/01/19 00:58:50;;;;;;;29.73;19.35;;;4.40;99.90;;;;;;5006415;28;20042;-78
2022/01/19 01:01:16;;;;;;;31.00;18.38;;;4.40;99.90;;;;;;5004144;28;20379;-78
2022/01/19 01:03:42;;;;;;;28.92;20.40;;;4.40;99.90;;;;;;5010143;28;20033;-78
2022/01/19 01:06:08;;;;;;;32.22;18.63;;;4.40;99.90;;;;;;4993883;28;20550;-77
2022/01/19 01:08:33;;;;;;;29.42;16.80;;;4.40;99.90;;;;;;4989817;28;20049;-78
2022/01/19 01:10:59;;;;;;;28.77;16.42;;;4.30;99.90;;;;;;4991592;28;20390;-78
2022/01/19 01:18:28;;;;;;;36.30;20.38;;;4.30;99.90;;;;;;4992072;28;20521;-78
2022/01/19 01:20:56;;;;;;;36.80;20.55;;;4.20;99.90;;;;;;4990067;28;20480;-79
2022/01/19 01:23:25;;;;;;;33.80;20.80;;;4.20;99.90;;;;;;5004416;28;20037;-78
2022/01/19 01:25:51;;;;;;;33.78;21.10;;;4.20;99.90;;;;;;4975936;28;20423;-78
2022/01/19 01:28:19;;;;;;;38.95;22.10;;;4.10;99.90;;;;;;4977728;28;20494;-78
2022/01/19 01:30:46;;;;;;;41.20;21.33;;;4.10;99.90;;;;;;5021853;28;20116;-78
2022/01/19 01:33:14;;;;;;;42.10;23.70;;;4.20;99.90;;;;;;4976470;28;20038;-78
2022/01/19 01:35:40;;;;;;;41.15;25.30;;;4.20;99.90;;;;;;5004447;28;20128;-78
2022/01/19 01:38:07;;;;;;;43.95;25.25;;;4.20;99.90;;;;;;4975314;28;20053;-78
2022/01/19 01:40:36;;;;;;;47.75;27.23;;;4.20;99.90;;;;;;5008569;28;20126;-78
2022/01/19 01:43:05;;;;;;;46.22;28.13;;;4.20;99.90;;;;;;4990561;28;20522;-78
2022/01/19 01:45:34;;;;;;;48.25;28.58;;;4.20;99.90;;;;;;5006806;28;20038;-78
2022/01/19 01:48:21;;;;;;;49.20;28.42;;;4.20;99.90;;;;;;5008138;28;20046;-78
2022/01/19 01:53:34;;;;;;;54.60;26.67;;;4.20;99.90;;;;;;5006304;28;20398;-78
2022/01/19 01:56:09;;;;;;;60.25;28.63;;;4.20;99.90;;;;;;4958846;28;20053;-78
2022/01/19 01:58:40;;;;;;;63.67;30.05;;;4.20;99.90;;;;;;5008052;28;20034;-78
2022/01/19 02:01:07;;;;;;;50.80;28.08;;;4.20;99.90;;;;;;5007106;28;20034;-78
2022/01/19 02:03:38;;;;;;;60.65;29.00;;;4.20;99.90;;;;;;5006728;28;20046;-78
2022/01/19 02:23:00;;;;;;;61.20;28.63;;;4.10;99.90;;;;;;5021066;28;20045;-89
2022/01/19 02:25:31;;;;;;;63.50;28.42;;;4.20;99.90;;;;;;4993342;28;20042;-88
2022/01/19 02:41:43;;;;;;;62.90;31.27;;;4.20;99.90;;;;;;4987944;28;20042;-77
2022/01/19 02:44:13;;;;;;;72.43;34.60;;;4.20;99.90;;;;;;4976294;28;20064;-78
2022/01/19 02:49:14;;;;;;;73.47;37.50;;;4.20;99.90;;;;;;5022228;28;20077;-78
2022/01/19 02:51:45;;;;;;;73.40;38.28;;;4.30;99.90;;;;;;4991980;28;20034;-78
2022/01/19 02:54:16;;;;;;;78.40;39.95;;;4.30;99.90;;;;;;5003802;28;20038;-78
2022/01/19 02:56:46;;;;;;;79.22;42.03;;;4.30;99.90;;;;;;4972700;28;20084;-78
2022/01/19 02:59:29;;;;;;;97.80;45.97;;;4.30;99.90;;;;;;5004172;28;20478;-78
2022/01/19 03:10:08;;;;;;;103.78;47.40;;;4.40;99.90;;;;;;5007045;28;20862;-88
2022/01/19 03:12:34;;;;;;;113.18;50.53;;;4.40;99.90;;;;;;4989911;28;20042;-88
2022/01/19 03:15:00;;;;;;;91.03;43.58;;;4.40;99.90;;;;;;5006636;28;20092;-87
2022/01/19 03:17:26;;;;;;;94.38;42.00;;;4.40;99.90;;;;;;5008643;28;20049;-89
2022/01/19 03:19:52;;;;;;;85.07;42.40;;;4.40;99.90;;;;;;4987046;28;20042;-88
2022/01/19 03:22:23;;;;;;;75.68;36.97;;;4.40;99.90;;;;;;5009516;28;20038;-88
2022/01/19 03:24:51;;;;;;;76.78;36.90;;;4.40;99.90;;;;;;5006235;28;20167;-89
2022/01/19 03:27:18;;;;;;;74.30;36.05;;;4.40;99.90;;;;;;5011891;28;20033;-88
2022/01/19 03:29:44;;;;;;;86.13;38.05;;;4.40;99.90;;;;;;5006995;28;20037;-88
2022/01/19 03:32:11;;;;;;;91.55;39.15;;;4.40;99.90;;;;;;5001808;28;20430;-88
2022/01/19 03:34:39;;;;;;;85.80;39.10;;;4.30;99.90;;;;;;5004897;28;20038;-88
2022/01/19 03:37:05;;;;;;;96.45;37.83;;;4.30;99.90;;;;;;5008082;28;20042;-88
2022/01/19 03:39:32;;;;;;;82.47;37.80;;;4.30;99.90;;;;;;5006599;28;20714;-78
2022/01/19 03:41:57;;;;;;;81.47;36.05;;;4.30;99.90;;;;;;5004194;28;20033;-78
2022/01/19 03:44:23;;;;;;;84.95;37.50;;;4.30;99.90;;;;;;4991280;28;20131;-78
2022/01/19 03:47:00;;;;;;;88.05;39.60;;;4.30;99.90;;;;;;4988150;28;20557;-88
2022/01/19 03:49:28;;;;;;;82.78;36.50;;;4.30;99.90;;;;;;4990892;28;20049;-88
2022/01/19 03:51:58;;;;;;;83.70;35.90;;;4.30;99.90;;;;;;5007746;28;20156;-89
2022/01/19 03:54:29;;;;;;;108.57;37.83;;;4.30;99.90;;;;;;5003473;28;20041;-88
2022/01/19 03:56:55;;;;;;;72.15;30.05;;;4.30;99.90;;;;;;5006318;28;20398;-87
2022/01/19 03:59:22;;;;;;;60.95;30.80;;;4.30;99.90;;;;;;5006785;28;20414;-88
2022/01/19 04:01:51;;;;;;;58.88;27.83;;;4.30;99.90;;;;;;4986444;28;20206;-89
2022/01/19 04:09:20;;;;;;;53.30;23.95;;;4.20;99.90;;;;;;5021235;28;20132;-89
2022/01/19 04:11:46;;;;;;;56.80;28.35;;;4.10;99.90;;;;;;4992010;28;20493;-88
2022/01/19 04:14:25;;;;;;;59.53;28.80;;;4.10;99.90;;;;;;5011767;28;20117;-78
2022/01/19 04:17:00;;;;;;;65.38;30.75;;;4.10;99.90;;;;;;5007955;28;20124;-78
2022/01/19 04:19:34;;;;;;;51.97;29.45;;;4.10;99.90;;;;;;5009188;28;20458;-78
2022/01/19 04:22:05;;;;;;;62.03;30.25;;;4.10;99.90;;;;;;4993994;28;20088;-78
2022/01/19 04:24:32;;;;;;;78.57;33.97;;;4.10;99.90;;;;;;4994853;28;20525;-78
2022/01/19 04:29:48;;;;;;;63.58;30.38;;;4.00;99.90;;;;;;5010979;28;20034;-78
2022/01/19 04:32:19;;;;;;;64.40;30.40;;;4.00;99.90;;;;;;5003986;28;20034;-78
2022/01/19 04:34:47;;;;;;;70.85;31.85;;;4.00;99.90;;;;;;4989396;28;20108;-78
2022/01/19 05:04:19;;;;;;;61.92;27.85;;;4.00;99.90;;;;;;4993967;28;20107;-88
2022/01/19 05:06:50;;;;;;;47.53;25.27;;;4.00;99.90;;;;;;4996133;28;20046;-88
2022/01/19 05:14:32;;;;;;;43.08;23.63;;;4.00;99.90;;;;;;5009881;28;20050;-78
2022/01/19 05:16:58;;;;;;;49.28;24.77;;;4.00;99.90;;;;;;4975617;28;20406;-78
2022/01/19 05:19:24;;;;;;;42.85;22.63;;;3.90;99.90;;;;;;4961295;28;20061;-78
2022/01/19 05:21:50;;;;;;;42.20;24.40;;;4.00;99.90;;;;;;4988765;28;20042;-77
2022/01/19 05:24:15;;;;;;;41.97;20.95;;;4.00;99.90;;;;;;4970168;28;20471;-77
2022/01/19 05:26:42;;;;;;;44.78;21.17;;;4.00;99.90;;;;;;4958454;28;20050;-77
2022/01/19 05:29:08;;;;;;;43.08;21.27;;;4.00;99.90;;;;;;4959621;28;20052;-88
2022/01/19 05:31:33;;;;;;;41.25;21.92;;;4.00;99.90;;;;;;4960240;28;20053;-78
2022/01/19 05:34:00;;;;;;;41.13;22.20;;;4.00;99.90;;;;;;4975460;28;20042;-77
2022/01/19 05:36:26;;;;;;;37.53;21.08;;;3.90;99.90;;;;;;4977186;28;20057;-76
2022/01/19 05:38:52;;;;;;;47.33;22.42;;;4.00;99.90;;;;;;4966701;28;20055;-88
2022/01/19 05:41:17;;;;;;;39.97;21.35;;;4.00;99.90;;;;;;4994773;28;20049;-88
2022/01/19 05:43:43;;;;;;;45.97;22.60;;;3.90;99.90;;;;;;4991892;28;20067;-88
2022/01/19 05:46:09;;;;;;;42.88;22.00;;;3.90;99.90;;;;;;4990572;28;20049;-88
2022/01/19 05:48:35;;;;;;;37.05;21.73;;;3.90;99.90;;;;;;4990113;28;20069;-77
2022/01/19 05:51:01;;;;;;;44.08;22.90;;;3.90;99.90;;;;;;4974851;28;20033;-88
2022/01/19 05:53:26;;;;;;;43.80;23.10;;;3.90;99.90;;;;;;4969974;28;20034;-88
2022/01/19 05:55:52;;;;;;;41.85;23.45;;;3.90;99.90;;;;;;4995027;28;20069;-87
2022/01/19 05:58:18;;;;;;;47.65;22.52;;;3.90;99.90;;;;;;4993617;28;20120;-88
2022/01/19 06:00:44;;;;;;;53.63;24.40;;;3.90;99.90;;;;;;5009152;28;20033;-88
2022/01/19 06:03:10;;;;;;;48.47;24.30;;;3.90;99.90;;;;;;4995072;28;20045;-88
2022/01/19 06:05:36;;;;;;;49.70;25.15;;;3.80;99.90;;;;;;4989357;28;20083;-88
2022/01/19 06:10:57;;;;;;;49.50;24.45;;;3.90;99.90;;;;;;4991511;28;20115;-76
2022/01/19 06:13:24;;;;;;;45.70;25.55;;;3.90;99.90;;;;;;4965411;28;20107;-76
2022/01/19 06:15:51;;;;;;;55.40;25.23;;;3.90;99.90;;;;;;4995401;28;20133;-76
2022/01/19 06:18:18;;;;;;;47.20;26.58;;;3.90;99.90;;;;;;4997479;28;20033;-76
2022/01/19 06:20:45;;;;;;;52.20;25.77;;;3.90;99.90;;;;;;4971194;28;20116;-87
2022/01/19 06:23:11;;;;;;;48.28;25.20;;;3.90;99.90;;;;;;4990118;28;20048;-88
2022/01/19 06:25:37;;;;;;;42.58;24.52;;;3.90;99.90;;;;;;5007421;28;20042;-82
2022/01/19 06:28:03;;;;;;;57.35;27.52;;;3.80;99.90;;;;;;5007639;28;20125;-88
2022/01/19 06:30:29;;;;;;;47.08;24.60;;;3.80;99.90;;;;;;4995764;28;20037;-86
2022/01/19 06:32:55;;;;;;;51.92;27.98;;;3.80;99.90;;;;;;4994770;28;20038;-88
2022/01/19 06:35:22;;;;;;;47.38;27.05;;;3.80;99.90;;;;;;5007342;28;20121;-89
2022/01/19 06:37:48;;;;;;;50.70;27.08;;;3.80;99.90;;;;;;4991334;28;20168;-89
2022/01/19 06:40:17;;;;;;;51.05;27.48;;;3.80;99.90;;;;;;5007378;28;20049;-86
2022/01/19 06:42:44;;;;;;;45.35;26.75;;;3.80;99.90;;;;;;4993617;28;20139;-88
2022/01/19 06:45:12;;;;;;;39.75;25.92;;;3.80;99.90;;;;;;4974632;28;20172;-86
2022/01/19 06:47:39;;;;;;;45.45;26.00;;;3.80;99.90;;;;;;4984787;28;20041;-87
2022/01/19 06:50:07;;;;;;;48.75;27.20;;;3.80;99.90;;;;;;4992386;28;20148;-78
2022/01/19 06:52:33;;;;;;;51.03;29.50;;;3.80;99.90;;;;;;5005645;28;20049;-77
2022/01/19 06:54:59;;;;;;;55.58;27.92;;;3.80;99.90;;;;;;4991896;28;20506;-88
2022/01/19 06:57:25;;;;;;;50.70;28.13;;;3.80;99.90;;;;;;4977053;28;20042;-89
2022/01/19 06:59:51;;;;;;;48.50;26.20;;;3.90;99.90;;;;;;5006853;28;20402;-87
2022/01/19 07:02:18;;;;;;;52.42;28.83;;;3.80;99.90;;;;;;5007651;28;20041;-88
2022/01/19 07:04:49;;;;;;;48.10;26.65;;;3.90;99.90;;;;;;5026380;28;20049;-86
2022/01/19 07:07:18;;;;;;;48.50;27.08;;;3.90;99.90;;;;;;4991381;28;20042;-87
2022/01/19 07:09:46;;;;;;;55.28;29.77;;;3.90;99.90;;;;;;5011194;28;20470;-88
2022/01/19 07:12:12;;;;;;;46.92;27.58;;;3.90;99.90;;;;;;5004940;28;20137;-87
2022/01/19 07:14:38;;;;;;;46.88;28.38;;;3.90;99.90;;;;;;5024817;28;20111;-85
2022/01/19 07:17:04;;;;;;;52.80;27.58;;;4.00;99.90;;;;;;5010388;28;20145;-86
2022/01/19 07:19:30;;;;;;;52.03;28.38;;;3.90;99.90;;;;;;4992517;28;20043;-86
2022/01/19 07:21:56;;;;;;;53.92;28.50;;;4.00;99.90;;;;;;4990707;28;20038;-86
2022/01/19 07:24:22;;;;;;;54.30;31.35;;;4.00;99.90;;;;;;5007595;28;20049;-86
2022/01/19 07:26:47;;;;;;;52.17;27.60;;;4.00;99.90;;;;;;5007893;28;20128;-86
2022/01/19 07:29:14;;;;;;;54.55;29.00;;;4.00;99.90;;;;;;4989195;28;20045;-86
2022/01/19 07:31:41;;;;;;;59.45;30.08;;;4.00;99.90;;;;;;5008484;28;20053;-86
2022/01/19 07:34:07;;;;;;;55.55;30.58;;;4.00;99.90;;;;;;4992099;28;23160;-87
2022/01/19 07:36:33;;;;;;;61.10;30.00;;;4.00;99.90;;;;;;5011983;28;20048;-77
2022/01/19 07:38:59;;;;;;;54.33;31.50;;;4.00;99.90;;;;;;4990435;28;20030;-80
2022/01/19 07:41:25;;;;;;;50.25;29.52;;;4.00;99.90;;;;;;4975978;28;20029;-79
2022/01/19 07:43:50;;;;;;;56.15;29.05;;;4.00;99.90;;;;;;4998511;28;20127;-79
2022/01/19 07:46:17;;;;;;;53.60;28.13;;;4.10;99.90;;;;;;5009776;28;20042;-90
2022/01/19 07:48:43;;;;;;;62.67;32.00;;;4.10;99.90;;;;;;4993727;28;20489;-90
2022/01/19 07:51:09;;;;;;;57.75;31.30;;;4.10;99.90;;;;;;4978072;28;20067;-90
2022/01/19 07:53:35;;;;;;;53.03;29.83;;;4.10;99.90;;;;;;4994116;28;20128;-91
2022/01/19 07:56:03;;;;;;;59.22;30.02;;;4.20;99.90;;;;;;4997233;28;20103;-90
2022/01/19 07:58:29;;;;;;;66.25;31.23;;;4.10;99.90;;;;;;5005629;28;20115;-90
2022/01/19 08:00:55;;;;;;;59.92;30.55;;;4.20;99.90;;;;;;5023621;28;20044;-91
2022/01/19 08:03:21;;;;;;;47.95;29.10;;;4.10;99.90;;;;;;4990273;28;20037;-90
2022/01/19 08:05:47;;;;;;;61.15;33.85;;;4.20;99.90;;;;;;4979939;28;20052;-91
2022/01/19 08:08:14;;;;;;;51.42;30.63;;;4.20;99.90;;;;;;5009901;28;20466;-90
2022/01/19 08:10:42;;;;;;;55.90;29.85;;;4.20;99.90;;;;;;5010704;28;20053;-90
2022/01/19 08:13:09;;;;;;;55.58;29.55;;;4.20;99.90;;;;;;4992498;28;20041;-90
2022/01/19 08:15:35;;;;;;;67.53;33.72;;;4.20;99.90;;;;;;4974910;28;20050;-91
2022/01/19 08:18:02;;;;;;;54.53;32.13;;;4.20;99.90;;;;;;5006625;28;20037;-90
2022/01/19 08:20:28;;;;;;;58.15;31.15;;;4.20;99.90;;;;;;5007793;28;20367;-91
2022/01/19 08:22:54;;;;;;;58.40;31.08;;;4.20;99.90;;;;;;4995921;28;20038;-91
2022/01/19 08:25:20;;;;;;;55.45;31.83;;;4.30;99.90;;;;;;4997123;28;20067;-90
2022/01/19 08:27:46;;;;;;;62.00;30.90;;;4.20;99.90;;;;;;4964895;28;20045;-90
2022/01/19 08:30:13;;;;;;;69.95;32.35;;;4.30;99.90;;;;;;5011784;28;20042;-90
2022/01/19 08:32:39;;;;;;;50.35;30.73;;;4.30;99.90;;;;;;4997804;28;20048;-90
2022/01/19 08:35:07;;;;;;;55.22;32.20;;;4.30;99.90;;;;;;5013027;28;20659;-91
2022/01/19 08:37:33;;;;;;;78.50;32.60;;;4.30;99.90;;;;;;4987855;28;20087;-91
2022/01/19 08:40:00;;;;;;;56.38;31.02;;;4.30;99.90;;;;;;5016134;28;20355;-91
2022/01/19 08:42:28;;;;;;;59.97;30.90;;;4.40;99.90;;;;;;4994748;28;20041;-90
2022/01/19 08:44:55;;;;;;;65.85;33.85;;;4.40;99.90;;;;;;4992335;28;20068;-91
2022/01/19 08:47:21;;;;;;;55.78;30.85;;;4.40;99.90;;;;;;4993874;28;20037;-91
2022/01/19 08:49:47;;;;;;;53.17;31.17;;;4.40;99.90;;;;;;5007917;28;20136;-91
2022/01/19 08:52:15;;;;;;;57.30;33.70;;;4.40;99.90;;;;;;4993133;28;20198;-91
2022/01/19 08:54:41;;;;;;;58.55;32.08;;;4.40;99.90;;;;;;4992635;28;20593;-91
2022/01/19 08:57:07;;;;;;;64.75;33.53;;;4.40;99.90;;;;;;4990518;28;20041;-91
2022/01/19 08:59:33;;;;;;;62.40;31.13;;;4.50;99.90;;;;;;4994614;28;20110;-90
2022/01/19 09:01:59;;;;;;;60.78;32.13;;;4.50;99.90;;;;;;5017837;28;20071;-91
2022/01/19 09:04:25;;;;;;;65.97;33.97;;;4.50;99.90;;;;;;4995717;28;20045;-90
2022/01/19 09:06:53;;;;;;;57.92;33.10;;;4.50;99.90;;;;;;4979462;28;20066;-91
2022/01/19 09:09:19;;;;;;;57.63;30.83;;;4.50;99.90;;;;;;4985322;28;20033;-91
2022/01/19 09:11:45;;;;;;;66.30;31.63;;;4.50;99.90;;;;;;5013443;28;20149;-91
2022/01/19 09:14:11;;;;;;;52.28;30.65;;;4.50;99.90;;;;;;4996381;28;20234;-90
2022/01/19 09:16:37;;;;;;;58.47;31.80;;;4.50;99.90;;;;;;4996090;28;20045;-88
2022/01/19 09:19:06;;;;;;;54.05;29.45;;;4.50;99.90;;;;;;4995429;28;20120;-91
2022/01/19 09:21:32;;;;;;;60.58;32.20;;;4.50;99.90;;;;;;4998893;28;20033;-90
2022/01/19 09:23:58;;;;;;;68.80;33.72;;;4.50;99.90;;;;;;5009207;28;20049;-80
2022/01/19 09:26:24;;;;;;;77.03;35.25;;;4.50;99.90;;;;;;4992823;28;20049;-80
2022/01/19 09:28:50;;;;;;;64.93;34.53;;;4.60;99.90;;;;;;4976664;28;20037;-80
2022/01/19 09:31:18;;;;;;;74.38;35.92;;;4.60;99.90;;;;;;4974898;28;20045;-80
2022/01/19 09:33:52;;;;;;;66.70;33.22;;;4.60;99.90;;;;;;4976896;28;20562;-76
2022/01/19 09:36:44;;;;;;;69.13;37.08;;;4.70;99.90;;;;;;5006599;28;20356;-76
2022/01/19 09:39:05;;;;;;;64.80;31.33;;;4.70;99.90;;;;;;5005002;28;20046;-76
2022/01/19 09:41:32;;;;;;;71.40;33.63;;;4.70;99.90;;;;;;4977714;28;20393;-76
2022/01/19 09:43:57;;;;;;;62.20;33.25;;;4.70;99.90;;;;;;4993953;28;20443;-77
2022/01/19 09:46:23;;;;;;;69.80;32.95;;;4.70;99.90;;;;;;5008688;28;20073;-76
2022/01/19 09:48:50;;;;;;;64.72;35.33;;;4.80;99.90;;;;;;4999308;28;20480;-84
2022/01/19 09:51:17;;;;;;;66.35;33.33;;;4.80;99.90;;;;;;5012649;28;20459;-76
2022/01/19 09:53:43;;;;;;;64.18;33.03;;;4.80;99.90;;;;;;5008544;28;20073;-76
2022/01/19 09:56:09;;;;;;;60.10;31.98;;;4.80;99.90;;;;;;5012008;28;20033;-76
2022/01/19 09:58:35;;;;;;;58.53;33.72;;;4.90;99.90;;;;;;5008268;28;20184;-75
2022/01/19 10:01:01;;;;;;;62.80;33.70;;;4.80;99.90;;;;;;4989944;28;20041;-76
2022/01/19 10:03:33;;;;;;;62.50;31.80;;;4.80;99.90;;;;;;4991746;28;20037;-76
2022/01/19 10:06:02;;;;;;;65.97;35.03;;;4.80;99.90;;;;;;4993600;28;20298;-84
2022/01/19 10:08:44;;;;;;;66.03;33.85;;;4.80;99.90;;;;;;5007546;28;20120;-84
2022/01/19 10:11:15;;;;;;;59.00;32.97;;;4.80;99.90;;;;;;5007813;28;20132;-84
2022/01/19 10:19:37;;;;;;;57.97;31.98;;;4.80;99.90;;;;;;4970631;28;20056;-76
2022/01/19 10:22:11;;;;;;;65.03;35.17;;;4.90;99.90;;;;;;4999013;28;20075;-76
2022/01/19 10:24:46;;;;;;;65.72;37.10;;;4.90;99.90;;;;;;5020851;28;20172;-76
2022/01/19 10:27:21;;;;;;;63.40;33.78;;;4.90;99.90;;;;;;5006255;28;20055;-84
2022/01/19 10:29:55;;;;;;;70.50;33.80;;;4.90;99.90;;;;;;5005986;28;20052;-84
2022/01/19 10:32:24;;;;;;;60.83;34.65;;;4.90;99.90;;;;;;5009980;28;20116;-84
2022/01/19 10:34:52;;;;;;;71.30;36.08;;;5.00;99.90;;;;;;4977931;28;20057;-84
2022/01/19 10:37:24;;;;;;;68.13;36.40;;;4.90;99.90;;;;;;5010086;28;20041;-84
2022/01/19 10:39:53;;;;;;;68.38;33.60;;;5.00;99.90;;;;;;5005803;28;20158;-84
2022/01/19 10:42:25;;;;;;;60.08;33.60;;;4.90;99.90;;;;;;5011417;28;20187;-76
2022/01/19 10:45:00;;;;;;;67.45;34.72;;;5.00;99.90;;;;;;5009872;28;20064;-76
2022/01/19 10:47:41;;;;;;;66.72;33.38;;;5.00;99.90;;;;;;5011760;28;20064;-76
2022/01/19 10:50:21;;;;;;;63.05;33.65;;;5.00;99.90;;;;;;5007957;28;20586;-76
2022/01/19 10:52:47;;;;;;;69.43;33.90;;;5.10;99.90;;;;;;4991145;28;20060;-76
2022/01/19 10:55:19;;;;;;;61.10;32.53;;;5.10;99.90;;;;;;5007779;28;20033;-76
2022/01/19 10:57:45;;;;;;;59.67;32.63;;;5.10;99.90;;;;;;5011570;28;20457;-76
2022/01/19 11:00:17;;;;;;;58.20;32.67;;;5.10;99.90;;;;;;4992924;28;20050;-76
2022/01/19 11:02:44;;;;;;;54.53;31.88;;;5.20;99.90;;;;;;5006513;28;20034;-76
2022/01/19 11:05:10;;;;;;;63.60;32.67;;;5.20;99.90;;;;;;5013967;28;20061;-76
2022/01/19 11:07:37;;;;;;;64.63;30.67;;;5.20;99.90;;;;;;5010561;28;20056;-76
2022/01/19 11:10:13;;;;;;;55.20;31.90;;;5.20;99.90;;;;;;5010442;28;20073;-76
2022/01/19 11:12:48;;;;;;;70.78;33.85;;;5.30;99.90;;;;;;4996629;28;20077;-84
2022/01/19 11:15:18;;;;;;;63.92;32.22;;;5.40;99.90;;;;;;5008240;28;20047;-84
2022/01/19 11:17:44;;;;;;;61.63;35.50;;;5.40;99.90;;;;;;5011517;28;20373;-84
2022/01/19 11:20:14;;;;;;;59.72;33.47;;;5.50;99.90;;;;;;5006048;28;20133;-84
2022/01/19 11:23:02;;;;;;;63.83;33.22;;;5.60;99.90;;;;;;5007227;28;20040;-76
2022/01/19 11:26:00;;;;;;;60.42;30.70;;;5.70;99.90;;;;;;4989348;28;20041;-76
2022/01/19 11:28:34;;;;;;;54.05;29.65;;;6.00;99.90;;;;;;5022432;28;20037;-76
2022/01/19 11:31:12;;;;;;;56.92;29.58;;;6.10;99.90;;;;;;5005077;28;20434;-76
2022/01/19 11:33:47;;;;;;;53.20;31.52;;;6.00;99.90;;;;;;5003642;28;20045;-75
2022/01/19 11:36:31;;;;;;;42.58;27.33;;;6.00;99.90;;;;;;5023154;28;20114;-76
2022/01/19 11:39:17;;;;;;;53.58;29.95;;;5.90;99.90;;;;;;5005190;28;20041;-76
2022/01/19 11:41:50;;;;;;;60.47;29.38;;;5.90;99.90;;;;;;5004202;28;20065;-76
2022/01/19 11:44:27;;;;;;;49.85;25.00;;;5.90;99.90;;;;;;4990941;28;20047;-85
2022/01/19 11:46:55;;;;;;;49.80;27.70;;;5.80;99.90;;;;;;5009008;28;20063;-85
2022/01/19 11:49:44;;;;;;;47.55;25.95;;;5.80;99.90;;;;;;5005666;28;20081;-85
2022/01/19 11:52:10;;;;;;;53.88;26.80;;;5.80;99.90;;;;;;5007091;28;20040;-84
2022/01/19 11:54:36;;;;;;;41.67;24.90;;;5.80;99.90;;;;;;5004820;28;20045;-86
2022/01/19 11:57:04;;;;;;;42.50;23.80;;;5.80;99.90;;;;;;5003862;28;20041;-76
2022/01/19 11:59:50;;;;;;;38.47;22.75;;;5.70;99.90;;;;;;5008392;28;20505;-76
2022/01/19 12:02:26;;;;;;;32.58;19.27;;;5.80;99.90;;;;;;5021603;28;20136;-77
2022/01/19 12:04:58;;;;;;;20.05;13.77;;;5.80;99.90;;;;;;5004338;28;20116;-78
2022/01/19 12:07:50;;;;;;;19.92;11.15;;;5.80;99.90;;;;;;5007686;28;20080;-79
2022/01/19 12:10:32;;;;;;;19.75;10.20;;;5.80;99.90;;;;;;5007019;28;20124;-79
2022/01/19 12:13:18;;;;;;;19.45;10.90;;;5.90;99.90;;;;;;5005738;28;20296;-79
2022/01/19 12:15:51;;;;;;;15.40;9.32;;;5.80;99.90;;;;;;5009660;28;20037;-79
2022/01/19 12:18:45;;;;;;;15.93;9.00;;;5.90;99.90;;;;;;5005251;28;20041;-78
2022/01/19 12:21:20;;;;;;;18.17;9.65;;;5.90;99.90;;;;;;4987220;28;20136;-79
2022/01/19 12:23:48;;;;;;;18.02;9.45;;;5.90;99.90;;;;;;4991069;28;20140;-78
2022/01/19 12:26:14;;;;;;;21.17;9.80;;;5.80;99.90;;;;;;5007471;28;20346;-78
2022/01/19 12:28:47;;;;;;;29.58;10.43;;;5.80;99.90;;;;;;4988593;28;20054;-78
2022/01/19 12:31:25;;;;;;;28.30;10.05;;;5.90;99.90;;;;;;5004834;28;20157;-78
2022/01/19 12:34:07;;;;;;;19.95;10.50;;;5.90;99.90;;;;;;5010950;28;20409;-78
2022/01/19 12:36:40;;;;;;;15.77;8.88;;;5.90;99.90;;;;;;5007066;28;20563;-78
2022/01/19 12:39:24;;;;;;;;;;;6.00;99.90;;;;;;4994127;28;20045;-78
2022/01/19 12:42:13;;;;;;;17.17;7.88;;;6.00;99.90;;;;;;5007094;28;19921;-90
2022/01/19 12:44:45;;;;;;;24.48;10.55;;;6.00;99.90;;;;;;5024303;28;20095;-77
2022/01/19 12:47:34;;;;;;;16.52;8.85;;;6.00;99.90;;;;;;4992728;28;20045;-90
2022/01/19 12:50:08;;;;;;;17.45;9.48;;;6.00;99.90;;;;;;5018232;28;20120;-89
2022/01/19 12:52:43;;;;;;;20.73;8.93;;;6.00;99.90;;;;;;5011638;28;20072;-89
2022/01/19 12:55:24;;;;;;;17.00;9.88;;;6.00;99.90;;;;;;4975152;28;20060;-88
2022/01/19 12:57:52;;;;;;;23.92;9.63;;;6.00;99.90;;;;;;5012217;28;20404;-83
2022/01/19 13:00:23;;;;;;;24.15;9.10;;;6.00;99.90;;;;;;5007420;28;20044;-82
2022/01/19 13:02:49;;;;;;;18.63;10.73;;;6.00;99.90;;;;;;5011214;28;20434;-82
2022/01/19 13:05:18;;;;;;;21.60;10.63;;;6.00;99.90;;;;;;5012990;28;20139;-78
2022/01/19 13:07:51;;;;;;;13.68;8.23;;;6.00;99.90;;;;;;4975452;28;20148;-78
2022/01/19 13:10:38;;;;;;;18.48;8.48;;;6.00;99.90;;;;;;5009876;28;20136;-78
2022/01/19 13:13:27;;;;;;;17.27;8.05;;;6.00;99.90;;;;;;5026953;28;20045;-79
2022/01/19 13:16:01;;;;;;;17.77;8.88;;;6.00;99.90;;;;;;5021047;28;21244;-79
2022/01/19 13:18:37;;;;;;;24.83;8.48;;;6.00;99.90;;;;;;5008135;28;20044;-77
2022/01/19 13:21:25;;;;;;;15.77;8.10;;;6.10;99.90;;;;;;4996594;28;20371;-78
2022/01/19 13:24:04;;;;;;;20.55;8.40;;;6.10;99.90;;;;;;5025507;28;20060;-78
2022/01/19 13:26:49;;;;;;;16.88;8.10;;;6.10;99.90;;;;;;4991539;28;20090;-77
2022/01/19 13:29:19;;;;;;;20.83;8.65;;;6.00;99.90;;;;;;4992146;28;20033;-77
2022/01/19 13:31:56;;;;;;;20.65;7.50;;;6.00;99.90;;;;;;5007628;28;20033;-78
2022/01/19 13:34:22;;;;;;;21.02;8.65;;;6.00;99.90;;;;;;5007600;28;20046;-78
2022/01/19 13:37:02;;;;;;;21.30;8.43;;;6.00;99.90;;;;;;5010140;28;20041;-78
2022/01/19 13:39:31;;;;;;;21.02;8.35;;;6.00;99.90;;;;;;4990281;28;20034;-78
2022/01/19 13:41:58;;;;;;;20.45;9.30;;;6.00;99.90;;;;;;4993210;28;20052;-77
2022/01/19 13:44:49;;;;;;;14.25;7.88;;;6.00;99.90;;;;;;4994047;28;20095;-77
2022/01/19 13:47:26;;;;;;;18.23;8.70;;;6.00;99.90;;;;;;5009146;28;20053;-77
2022/01/19 13:49:53;;;;;;;23.13;8.65;;;6.00;99.90;;;;;;4993272;28;20080;-77
2022/01/19 13:52:25;;;;;;;12.90;7.70;;;6.00;99.90;;;;;;5011486;28;20128;-78
2022/01/19 13:54:51;;;;;;;18.60;9.02;;;5.90;99.90;;;;;;4990597;28;20501;-78
2022/01/19 13:57:28;;;;;;;16.85;8.93;;;6.00;99.90;;;;;;4992812;28;20296;-77
2022/01/19 14:00:07;;;;;;;20.48;8.52;;;6.00;99.90;;;;;;4977681;28;20033;-77
2022/01/19 14:02:33;;;;;;;16.80;8.77;;;5.90;99.90;;;;;;5023038;28;20037;-78
2022/01/19 14:05:03;;;;;;;19.70;9.43;;;5.90;99.90;;;;;;5007836;28;20063;-78
2022/01/19 14:07:28;;;;;;;23.20;9.95;;;5.90;99.90;;;;;;5008547;28;20049;-78
2022/01/19 14:10:05;;;;;;;20.30;9.50;;;5.90;99.90;;;;;;4989135;28;20046;-78
2022/01/19 14:12:31;;;;;;;20.40;9.70;;;5.90;99.90;;;;;;4991622;28;20212;-78
2022/01/19 14:14:58;;;;;;;23.23;8.60;;;5.90;99.90;;;;;;4992981;28;20060;-77
2022/01/19 14:17:31;;;;;;;25.35;10.93;;;5.90;99.90;;;;;;4990947;28;20041;-78
2022/01/19 14:19:58;;;;;;;28.80;10.27;;;5.90;99.90;;;;;;5008356;28;20403;-78
2022/01/19 14:22:26;;;;;;;29.27;10.40;;;5.90;99.90;;;;;;4989001;28;20073;-78
2022/01/19 14:25:04;;;;;;;23.05;9.57;;;5.90;99.90;;;;;;4991237;28;20068;-77
2022/01/19 14:27:32;;;;;;;19.55;10.00;;;5.90;99.90;;;;;;4993360;28;20055;-79